Time;durP1;ratioP1;P1;durP2;ratioP2;P2;SDS_P1;SDS_P2;PMS_P1;PMS_P2;Temp;Humidity;BMP_temperature;BMP_pressure;BME280_temperature;BME280_humidity;BME280_pressure;Samples;Min_cycle;Max_cycle;Signal;HPM_P1;HPM_P2
2023/08/19 00:01:32;;;;;;;8.75;5.95;;;;;;;;;;5015867;28;20207;-52
2023/08/19 00:03:58;;;;;;;7.35;6.60;;;;;;;;;;5015718;28;20184;-52
2023/08/19 00:06:39;;;;;;;6.32;5.70;;;;;;;;;;5016409;28;20180;-52
2023/08/19 00:09:08;;;;;;;6.53;5.90;;;;;;;;;;5015444;28;20180;-52
2023/08/19 00:11:35;;;;;;;6.82;6.13;;;;;;;;;;5016118;28;20450;-52
2023/08/19 00:14:01;;;;;;;5.90;5.30;;;;;;;;;;5015813;28;20611;-52
2023/08/19 00:16:27;;;;;;;7.43;5.85;;;;;;;;;;5024633;28;20180;-52
2023/08/19 00:18:53;;;;;;;6.20;5.60;;;;;;;;;;5026011;28;20195;-52
2023/08/19 00:21:19;;;;;;;6.10;5.47;;;;;;;;;;5013232;28;20211;-52
2023/08/19 00:23:45;;;;;;;8.15;5.82;;;;;;;;;;5015631;28;20176;-52
2023/08/19 00:26:11;;;;;;;5.88;5.38;;;;;;;;;;5016169;28;20441;-52
2023/08/19 00:28:40;;;;;;;6.97;6.28;;;;;;;;;;5015537;28;20184;-52
2023/08/19 00:31:07;;;;;;;6.68;6.05;;;;;;;;;;5015216;28;20474;-52
2023/08/19 00:33:33;;;;;;;8.30;6.35;;;;;;;;;;5015675;28;20561;-52
2023/08/19 00:35:59;;;;;;;6.53;5.93;;;;;;;;;;5015736;28;20210;-52
2023/08/19 00:38:25;;;;;;;7.28;6.10;;;;;;;;;;5016137;28;20234;-52
2023/08/19 00:40:51;;;;;;;9.02;5.82;;;;;;;;;;5014871;28;20220;-52
2023/08/19 00:43:17;;;;;;;8.00;6.50;;;;;;;;;;5015237;28;20250;-52
2023/08/19 00:45:47;;;;;;;8.07;5.93;;;;;;;;;;5022666;28;20172;-52
2023/08/19 00:48:14;;;;;;;6.72;5.70;;;;;;;;;;5032530;28;20311;-52
2023/08/19 00:50:40;;;;;;;6.72;6.03;;;;;;;;;;5014672;28;20226;-52
2023/08/19 00:53:06;;;;;;;7.53;5.38;;;;;;;;;;5014731;28;20559;-52
2023/08/19 00:55:33;;;;;;;6.70;6.00;;;;;;;;;;5015256;28;20450;-52
2023/08/19 00:58:01;;;;;;;6.60;5.28;;;;;;;;;;5015187;28;20290;-52
2023/08/19 01:00:28;;;;;;;6.85;5.65;;;;;;;;;;5014719;28;20204;-52
2023/08/19 01:02:54;;;;;;;6.70;5.35;;;;;;;;;;5014183;28;20200;-52
2023/08/19 01:05:21;;;;;;;5.68;5.18;;;;;;;;;;5015616;28;20545;-52
2023/08/19 01:07:54;;;;;;;7.07;5.85;;;;;;;;;;5015566;28;20583;-52
2023/08/19 01:10:37;;;;;;;8.18;6.35;;;;;;;;;;5014661;28;20187;-52
2023/08/19 01:13:14;;;;;;;12.63;6.45;;;;;;;;;;5014225;28;20567;-52
2023/08/19 01:15:58;;;;;;;7.30;6.47;;;;;;;;;;5019942;28;20190;-52
2023/08/19 01:18:24;;;;;;;6.57;5.47;;;;;;;;;;5023446;28;20173;-52
2023/08/19 01:20:50;;;;;;;8.48;5.70;;;;;;;;;;5013943;28;20290;-52
2023/08/19 01:23:18;;;;;;;6.10;5.50;;;;;;;;;;5014474;28;20188;-52
2023/08/19 01:25:44;;;;;;;6.95;5.72;;;;;;;;;;5015030;28;20208;-52
2023/08/19 01:28:10;;;;;;;7.75;5.57;;;;;;;;;;5015245;28;20199;-52
2023/08/19 01:30:36;;;;;;;8.00;6.07;;;;;;;;;;5014421;28;20184;-52
2023/08/19 01:33:05;;;;;;;6.25;5.32;;;;;;;;;;5013514;28;20278;-52
2023/08/19 01:35:32;;;;;;;8.07;6.07;;;;;;;;;;5013816;28;20188;-52
2023/08/19 01:38:14;;;;;;;6.75;5.85;;;;;;;;;;5014084;28;20544;-52
2023/08/19 01:40:40;;;;;;;8.50;5.75;;;;;;;;;;5012584;28;20602;-52
2023/08/19 01:43:10;;;;;;;7.10;5.63;;;;;;;;;;5014089;28;20634;-52
2023/08/19 01:45:36;;;;;;;7.20;5.90;;;;;;;;;;5020284;28;20611;-52
2023/08/19 01:48:02;;;;;;;6.40;5.80;;;;;;;;;;5030627;28;20197;-52
2023/08/19 01:50:28;;;;;;;6.43;5.78;;;;;;;;;;5014574;28;20459;-52
2023/08/19 01:52:54;;;;;;;6.05;5.45;;;;;;;;;;5013698;28;20180;-52
2023/08/19 01:55:20;;;;;;;5.80;5.20;;;;;;;;;;5012242;28;20567;-52
2023/08/19 01:57:46;;;;;;;7.80;5.80;;;;;;;;;;5015104;28;20196;-52
2023/08/19 02:00:12;;;;;;;6.47;5.45;;;;;;;;;;5014024;28;20192;-52
2023/08/19 02:02:38;;;;;;;7.55;5.47;;;;;;;;;;5014398;28;20184;-52
2023/08/19 02:05:05;;;;;;;6.07;5.47;;;;;;;;;;5015010;28;20176;-52
2023/08/19 02:07:31;;;;;;;7.15;5.43;;;;;;;;;;5018983;28;20478;-52
2023/08/19 02:09:57;;;;;;;6.65;5.95;;;;;;;;;;5023710;28;20187;-52
2023/08/19 02:12:23;;;;;;;6.20;5.57;;;;;;;;;;5017676;28;20200;-52
2023/08/19 02:14:49;;;;;;;8.35;5.63;;;;;;;;;;5013019;28;20583;-52
2023/08/19 02:17:14;;;;;;;6.43;5.50;;;;;;;;;;5036046;28;20270;-52
2023/08/19 02:19:40;;;;;;;5.80;5.25;;;;;;;;;;5024495;28;20187;-52
2023/08/19 02:22:07;;;;;;;6.55;5.78;;;;;;;;;;5018199;28;20596;-52
2023/08/19 02:24:33;;;;;;;5.90;5.40;;;;;;;;;;5017917;28;20172;-52
2023/08/19 02:26:59;;;;;;;6.40;5.60;;;;;;;;;;5018425;28;20180;-52
2023/08/19 02:29:25;;;;;;;6.43;5.22;;;;;;;;;;5017538;28;20203;-52
2023/08/19 02:31:51;;;;;;;6.45;5.85;;;;;;;;;;5017963;28;20242;-52
2023/08/19 02:34:17;;;;;;;6.50;5.45;;;;;;;;;;5017434;28;20184;-52
2023/08/19 02:36:43;;;;;;;6.93;5.75;;;;;;;;;;5018061;28;20206;-52
2023/08/19 02:39:09;;;;;;;7.10;5.50;;;;;;;;;;5017701;28;20188;-52
2023/08/19 02:41:34;;;;;;;9.07;5.78;;;;;;;;;;5017826;28;20240;-52
2023/08/19 02:44:00;;;;;;;7.78;6.07;;;;;;;;;;5016991;28;20187;-52
2023/08/19 02:46:26;;;;;;;7.10;5.93;;;;;;;;;;5028474;28;20210;-52
2023/08/19 02:48:52;;;;;;;6.25;5.65;;;;;;;;;;5031072;28;20184;-52
2023/08/19 02:51:18;;;;;;;7.03;5.85;;;;;;;;;;5017492;28;20200;-51
2023/08/19 02:53:44;;;;;;;7.15;6.03;;;;;;;;;;5017228;28;20184;-52
2023/08/19 02:56:10;;;;;;;6.78;5.70;;;;;;;;;;5017200;28;20627;-51
2023/08/19 02:58:36;;;;;;;7.20;5.95;;;;;;;;;;5017355;28;20207;-52
2023/08/19 03:01:03;;;;;;;6.43;5.82;;;;;;;;;;5017044;28;20580;-51
2023/08/19 03:03:29;;;;;;;6.50;5.63;;;;;;;;;;5016479;28;20232;-51
2023/08/19 03:05:58;;;;;;;5.93;5.32;;;;;;;;;;5017805;28;20187;-52
2023/08/19 03:08:24;;;;;;;6.63;5.68;;;;;;;;;;5017366;28;20191;-52
2023/08/19 03:10:50;;;;;;;9.43;6.22;;;;;;;;;;5017186;28;20197;-52
2023/08/19 03:13:16;;;;;;;8.93;6.15;;;;;;;;;;5016781;28;20446;-52
2023/08/19 03:15:42;;;;;;;6.97;5.20;;;;;;;;;;5021292;28;20180;-52
2023/08/19 03:18:09;;;;;;;7.60;5.45;;;;;;;;;;5034154;28;20187;-52
2023/08/19 03:20:35;;;;;;;6.18;5.57;;;;;;;;;;5016888;28;20594;-52
2023/08/19 03:23:01;;;;;;;10.00;5.95;;;;;;;;;;5016934;28;20185;-52
2023/08/19 03:25:27;;;;;;;7.50;5.65;;;;;;;;;;5016948;28;20207;-52
2023/08/19 03:27:53;;;;;;;6.38;5.68;;;;;;;;;;5016976;28;20184;-52
2023/08/19 03:30:19;;;;;;;6.60;5.10;;;;;;;;;;5016384;28;20180;-52
2023/08/19 03:32:45;;;;;;;6.07;5.40;;;;;;;;;;5016221;28;20452;-52
2023/08/19 03:35:11;;;;;;;7.15;5.80;;;;;;;;;;5016775;28;20599;-52
2023/08/19 03:37:37;;;;;;;8.38;5.95;;;;;;;;;;5016877;28;20184;-51
2023/08/19 03:40:03;;;;;;;6.72;5.38;;;;;;;;;;5016322;28;20177;-52
2023/08/19 03:42:29;;;;;;;6.47;5.82;;;;;;;;;;5016373;28;20251;-52
2023/08/19 03:44:55;;;;;;;6.40;5.38;;;;;;;;;;5032150;28;20176;-52
2023/08/19 03:47:21;;;;;;;7.10;5.30;;;;;;;;;;5032816;28;20195;-52
2023/08/19 03:49:47;;;;;;;8.20;5.72;;;;;;;;;;5016306;28;20268;-52
2023/08/19 03:52:13;;;;;;;6.82;5.53;;;;;;;;;;5016756;28;20225;-52
2023/08/19 03:54:39;;;;;;;7.88;5.13;;;;;;;;;;5016244;28;20281;-51
2023/08/19 03:57:05;;;;;;;5.97;5.38;;;;;;;;;;5015606;28;20572;-52
2023/08/19 03:59:31;;;;;;;6.75;5.78;;;;;;;;;;5015931;28;20220;-52
2023/08/19 04:01:57;;;;;;;8.10;5.78;;;;;;;;;;5016358;28;20523;-52
2023/08/19 04:04:22;;;;;;;7.47;5.75;;;;;;;;;;5015837;28;20223;-52
2023/08/19 04:06:48;;;;;;;7.00;5.72;;;;;;;;;;5016630;28;20230;-52
2023/08/19 04:09:14;;;;;;;6.20;5.38;;;;;;;;;;5015996;28;20263;-52
2023/08/19 04:11:40;;;;;;;6.13;5.43;;;;;;;;;;5016145;28;20227;-52
2023/08/19 04:14:06;;;;;;;6.53;5.10;;;;;;;;;;5015907;28;20212;-52
2023/08/19 04:16:32;;;;;;;8.40;5.30;;;;;;;;;;5018838;28;20218;-52
2023/08/19 04:18:59;;;;;;;6.63;5.72;;;;;;;;;;5024926;28;20463;-52
2023/08/19 04:21:25;;;;;;;6.38;5.20;;;;;;;;;;5015577;28;20231;-51
2023/08/19 04:23:51;;;;;;;5.65;5.15;;;;;;;;;;5015859;28;20181;-52
2023/08/19 04:26:17;;;;;;;5.70;5.10;;;;;;;;;;5015660;28;20668;-51
2023/08/19 04:28:43;;;;;;;8.77;5.80;;;;;;;;;;5016017;28;20255;-51
2023/08/19 04:31:10;;;;;;;5.60;5.03;;;;;;;;;;5015241;28;20183;-52
2023/08/19 04:33:36;;;;;;;5.65;4.93;;;;;;;;;;5015367;28;20563;-52
2023/08/19 04:36:03;;;;;;;6.40;4.90;;;;;;;;;;5015827;28;20635;-52
2023/08/19 04:38:29;;;;;;;7.22;5.35;;;;;;;;;;5015702;28;20204;-51
2023/08/19 04:40:56;;;;;;;7.53;4.85;;;;;;;;;;5015316;28;20559;-52
2023/08/19 04:43:22;;;;;;;10.00;5.38;;;;;;;;;;5015173;28;20564;-52
2023/08/19 04:45:48;;;;;;;6.30;4.65;;;;;;;;;;5019661;28;20190;-52
2023/08/19 04:48:14;;;;;;;6.75;5.05;;;;;;;;;;5034519;28;20183;-51
2023/08/19 04:50:40;;;;;;;7.05;4.82;;;;;;;;;;5015586;28;20195;-52
2023/08/19 04:53:07;;;;;;;5.40;4.90;;;;;;;;;;5015006;28;20275;-52
2023/08/19 04:55:33;;;;;;;8.45;4.55;;;;;;;;;;5009546;28;20192;-51
2023/08/19 04:57:58;;;;;;;5.40;4.90;;;;;;;;;;5015792;28;20196;-52
2023/08/19 05:00:24;;;;;;;6.60;4.85;;;;;;;;;;5015221;28;20208;-52
2023/08/19 05:02:50;;;;;;;6.50;5.18;;;;;;;;;;5014674;28;20267;-52
2023/08/19 05:05:16;;;;;;;7.07;5.53;;;;;;;;;;5014865;28;20180;-52
2023/08/19 05:07:42;;;;;;;8.10;5.63;;;;;;;;;;5015669;28;20466;-52
2023/08/19 05:10:09;;;;;;;5.85;5.25;;;;;;;;;;5014954;28;20272;-51
2023/08/19 05:12:35;;;;;;;5.97;5.38;;;;;;;;;;5014972;28;20481;-52
2023/08/19 05:15:01;;;;;;;7.38;5.80;;;;;;;;;;5014152;28;20485;-52
2023/08/19 05:17:27;;;;;;;6.18;5.43;;;;;;;;;;5023992;28;20180;-52
2023/08/19 05:19:55;;;;;;;5.93;5.30;;;;;;;;;;5022174;28;20191;-52
2023/08/19 05:22:22;;;;;;;8.18;6.18;;;;;;;;;;5014168;28;20212;-51
2023/08/19 05:24:49;;;;;;;6.47;5.63;;;;;;;;;;5014632;28;20172;-52
2023/08/19 05:27:15;;;;;;;6.10;5.47;;;;;;;;;;5014879;28;20184;-52
2023/08/19 05:29:41;;;;;;;7.90;5.80;;;;;;;;;;5015159;28;20176;-52
2023/08/19 05:32:07;;;;;;;7.60;5.85;;;;;;;;;;5014605;28;20199;-51
2023/08/19 05:34:33;;;;;;;6.93;6.13;;;;;;;;;;5014150;28;20184;-52
2023/08/19 05:36:59;;;;;;;7.68;6.15;;;;;;;;;;5014364;28;20187;-51
2023/08/19 05:39:25;;;;;;;7.78;5.85;;;;;;;;;;5014870;28;20907;-51
2023/08/19 05:41:51;;;;;;;7.03;6.07;;;;;;;;;;5017971;28;20646;-52
2023/08/19 05:44:17;;;;;;;12.60;7.22;;;;;;;;;;5018357;28;20187;-52
2023/08/19 05:46:43;;;;;;;17.50;7.45;;;;;;;;;;5021262;28;20216;-51
2023/08/19 05:49:09;;;;;;;20.52;7.93;;;;;;;;;;5032582;28;20539;-51
2023/08/19 05:51:34;;;;;;;26.60;9.63;;;;;;;;;;5017751;28;20467;-52
2023/08/19 05:54:01;;;;;;;36.70;10.43;;;;;;;;;;5017997;28;20195;-52
2023/08/19 05:56:27;;;;;;;39.40;11.55;;;;;;;;;;5018210;28;20263;-52
2023/08/19 05:58:54;;;;;;;38.00;11.50;;;;;;;;;;5011428;28;20196;-51
2023/08/19 06:01:20;;;;;;;30.98;10.63;;;;;;;;;;5018041;28;20287;-51
2023/08/19 06:03:45;;;;;;;35.38;10.20;;;;;;;;;;5017658;28;20295;-52
2023/08/19 06:06:11;;;;;;;25.58;9.32;;;;;;;;;;5018065;28;20258;-52
2023/08/19 06:08:37;;;;;;;21.55;9.25;;;;;;;;;;5018479;28;20460;-51
2023/08/19 06:11:07;;;;;;;26.13;9.68;;;;;;;;;;5017568;28;20189;-51
2023/08/19 06:13:37;;;;;;;18.17;8.35;;;;;;;;;;5017575;28;20199;-52
2023/08/19 06:16:03;;;;;;;17.67;7.88;;;;;;;;;;5023318;28;20184;-51
2023/08/19 06:18:29;;;;;;;15.77;7.97;;;;;;;;;;5037590;28;20192;-51
2023/08/19 06:20:56;;;;;;;19.88;7.90;;;;;;;;;;5017788;28;20275;-51
2023/08/19 06:23:22;;;;;;;14.90;7.47;;;;;;;;;;5018009;28;20184;-51
2023/08/19 06:25:49;;;;;;;17.15;7.55;;;;;;;;;;5018510;28;20560;-51
2023/08/19 06:28:15;;;;;;;13.10;7.28;;;;;;;;;;5018117;28;20185;-52
2023/08/19 06:30:41;;;;;;;16.88;7.03;;;;;;;;;;5018100;28;20195;-51
2023/08/19 06:33:07;;;;;;;13.13;6.68;;;;;;;;;;5017296;28;20227;-51
2023/08/19 06:35:33;;;;;;;11.15;6.85;;;;;;;;;;5017079;28;20180;-51
2023/08/19 06:38:03;;;;;;;11.63;7.05;;;;;;;;;;5017949;28;20212;-52
2023/08/19 06:40:31;;;;;;;11.40;6.43;;;;;;;;;;5017523;28;20468;-51
2023/08/19 06:42:58;;;;;;;14.43;7.32;;;;;;;;;;5016708;28;20230;-51
2023/08/19 06:45:25;;;;;;;12.52;6.45;;;;;;;;;;5018047;28;20191;-51
2023/08/19 06:47:53;;;;;;;8.80;7.50;;;;;;;;;;5031459;28;20187;-52
2023/08/19 06:50:19;;;;;;;9.68;6.72;;;;;;;;;;5021902;28;20259;-51
2023/08/19 06:52:45;;;;;;;13.13;7.88;;;;;;;;;;5016681;28;20187;-52
2023/08/19 06:55:12;;;;;;;12.40;9.05;;;;;;;;;;5017682;28;20450;-52
2023/08/19 06:57:41;;;;;;;12.65;8.48;;;;;;;;;;5016905;28;20279;-52
2023/08/19 07:00:10;;;;;;;10.77;7.88;;;;;;;;;;5016626;28;20203;-52
2023/08/19 07:02:37;;;;;;;9.60;7.65;;;;;;;;;;5017079;28;20207;-51
2023/08/19 07:05:14;;;;;;;8.55;7.30;;;;;;;;;;5026433;28;20191;-51
2023/08/19 07:07:47;;;;;;;9.38;7.75;;;;;;;;;;5017168;28;20208;-52
2023/08/19 07:10:16;;;;;;;8.52;7.72;;;;;;;;;;5017017;28;20239;-51
2023/08/19 07:12:43;;;;;;;8.20;7.10;;;;;;;;;;5014962;28;20180;-52
2023/08/19 07:15:12;;;;;;;9.00;8.10;;;;;;;;;;5024072;28;20183;-52
2023/08/19 07:17:39;;;;;;;8.52;7.60;;;;;;;;;;5017115;28;20872;-52
2023/08/19 07:20:06;;;;;;;9.48;7.95;;;;;;;;;;5023289;28;20214;-51
2023/08/19 07:22:34;;;;;;;14.05;8.38;;;;;;;;;;5015498;28;20208;-52
2023/08/19 07:25:00;;;;;;;10.23;7.90;;;;;;;;;;5012635;28;20169;-51
2023/08/19 07:27:26;;;;;;;10.15;7.57;;;;;;;;;;5016801;28;20181;-52
2023/08/19 07:29:54;;;;;;;8.55;7.75;;;;;;;;;;5016880;28;20188;-52
2023/08/19 07:32:20;;;;;;;8.23;7.32;;;;;;;;;;5016556;28;20209;-52
2023/08/19 07:34:46;;;;;;;10.20;7.93;;;;;;;;;;5032108;28;20572;-51
2023/08/19 07:37:12;;;;;;;7.85;6.78;;;;;;;;;;5016876;28;20230;-51
2023/08/19 07:39:39;;;;;;;9.45;7.40;;;;;;;;;;5016782;28;20299;-51
2023/08/19 07:42:05;;;;;;;8.35;7.10;;;;;;;;;;5015794;28;20208;-52
2023/08/19 07:44:31;;;;;;;8.57;6.78;;;;;;;;;;5016561;28;20189;-51
2023/08/19 07:46:57;;;;;;;7.15;6.45;;;;;;;;;;5019974;28;20198;-52
2023/08/19 07:49:23;;;;;;;8.20;7.10;;;;;;;;;;5029475;28;20622;-52
2023/08/19 07:51:49;;;;;;;9.25;7.38;;;;;;;;;;5016345;28;20195;-52
2023/08/19 07:54:14;;;;;;;10.38;7.03;;;;;;;;;;5030386;28;20556;-51
2023/08/19 07:56:40;;;;;;;8.93;7.53;;;;;;;;;;5016074;28;20234;-52
2023/08/19 07:59:06;;;;;;;10.38;7.13;;;;;;;;;;5016534;28;20200;-52
2023/08/19 08:01:32;;;;;;;8.05;6.68;;;;;;;;;;5016287;28;20203;-51
2023/08/19 08:03:58;;;;;;;10.43;7.75;;;;;;;;;;5014906;28;20560;-52
2023/08/19 08:06:24;;;;;;;10.40;7.00;;;;;;;;;;5016149;28;20267;-52
2023/08/19 08:08:50;;;;;;;7.97;7.18;;;;;;;;;;5016515;28;20191;-52
2023/08/19 08:11:16;;;;;;;9.60;7.25;;;;;;;;;;5016134;28;20203;-51
2023/08/19 08:13:42;;;;;;;8.27;7.47;;;;;;;;;;5014901;28;20215;-52
2023/08/19 08:16:08;;;;;;;9.57;7.57;;;;;;;;;;5016481;28;20192;-52
2023/08/19 08:18:34;;;;;;;8.35;7.47;;;;;;;;;;5031959;28;20199;-51
2023/08/19 08:21:00;;;;;;;9.23;6.93;;;;;;;;;;5016439;28;20282;-51
2023/08/19 08:23:26;;;;;;;8.23;6.88;;;;;;;;;;5015210;28;20611;-51
2023/08/19 08:25:52;;;;;;;8.95;6.85;;;;;;;;;;5016097;28;20180;-51
2023/08/19 08:28:18;;;;;;;8.85;6.72;;;;;;;;;;5015909;28;20226;-51
2023/08/19 08:30:44;;;;;;;10.40;6.78;;;;;;;;;;5015934;28;20202;-51
2023/08/19 08:33:10;;;;;;;8.98;7.40;;;;;;;;;;5014919;28;20227;-52
2023/08/19 08:35:35;;;;;;;7.68;6.95;;;;;;;;;;5015319;28;20192;-51
2023/08/19 08:38:02;;;;;;;7.72;6.93;;;;;;;;;;5015638;28;20184;-51
2023/08/19 08:40:31;;;;;;;8.45;7.55;;;;;;;;;;5015615;28;20195;-51
2023/08/19 08:42:57;;;;;;;7.45;6.75;;;;;;;;;;5015115;28;20259;-52
2023/08/19 08:45:26;;;;;;;10.35;7.78;;;;;;;;;;5015324;28;20223;-52
2023/08/19 08:47:52;;;;;;;8.20;7.00;;;;;;;;;;5026619;28;20180;-51
2023/08/19 08:50:18;;;;;;;7.75;6.95;;;;;;;;;;5021307;28;20180;-51
2023/08/19 08:52:44;;;;;;;8.23;7.13;;;;;;;;;;5014973;28;20762;-51
2023/08/19 08:55:10;;;;;;;7.28;6.60;;;;;;;;;;5013958;28;20220;-52
2023/08/19 08:57:36;;;;;;;7.13;6.47;;;;;;;;;;5015568;28;20214;-52
2023/08/19 09:00:03;;;;;;;6.72;6.10;;;;;;;;;;5014645;28;20293;-52
2023/08/19 09:02:30;;;;;;;6.10;5.60;;;;;;;;;;5015519;28;20200;-51
2023/08/19 09:04:56;;;;;;;6.30;5.70;;;;;;;;;;5014270;28;20188;-52
2023/08/19 09:07:25;;;;;;;6.20;5.60;;;;;;;;;;5015205;28;20243;-52
2023/08/19 09:09:53;;;;;;;6.15;5.55;;;;;;;;;;5015113;28;20204;-52
2023/08/19 09:12:20;;;;;;;6.00;5.20;;;;;;;;;;5014108;28;20180;-51
2023/08/19 09:14:47;;;;;;;6.25;5.63;;;;;;;;;;5011860;28;20540;-52
2023/08/19 09:17:17;;;;;;;5.97;5.22;;;;;;;;;;5019290;28;20245;-52
2023/08/19 09:19:43;;;;;;;6.72;4.82;;;;;;;;;;5025266;28;20219;-52
2023/08/19 09:22:15;;;;;;;8.88;5.15;;;;;;;;;;5011285;28;20247;-52
2023/08/19 09:24:42;;;;;;;5.60;5.05;;;;;;;;;;5011821;28;20184;-51
2023/08/19 09:27:07;;;;;;;7.20;4.75;;;;;;;;;;5014697;28;20218;-51
2023/08/19 09:29:34;;;;;;;5.68;4.85;;;;;;;;;;5014099;28;20184;-52
2023/08/19 09:32:00;;;;;;;5.50;5.00;;;;;;;;;;5014086;28;20552;-52
2023/08/19 09:34:26;;;;;;;8.40;4.93;;;;;;;;;;5014331;28;20206;-52
2023/08/19 09:36:58;;;;;;;6.25;4.95;;;;;;;;;;5014843;28;20880;-52
2023/08/19 09:39:33;;;;;;;5.22;4.60;;;;;;;;;;5014413;28;20184;-52
2023/08/19 09:41:59;;;;;;;5.93;4.72;;;;;;;;;;5014370;28;20491;-52
2023/08/19 09:44:29;;;;;;;6.60;4.47;;;;;;;;;;5011629;28;20181;-52
2023/08/19 09:46:56;;;;;;;6.78;4.50;;;;;;;;;;5015374;28;20177;-52
2023/08/19 09:49:22;;;;;;;8.60;4.55;;;;;;;;;;5015741;28;20203;-52
2023/08/19 09:51:57;;;;;;;5.68;4.60;;;;;;;;;;5014343;28;20176;-52
2023/08/19 09:54:24;;;;;;;6.90;4.57;;;;;;;;;;5012346;28;20187;-52
2023/08/19 09:56:55;;;;;;;5.32;4.43;;;;;;;;;;5014239;28;20443;-52
2023/08/19 09:59:21;;;;;;;5.30;4.82;;;;;;;;;;5011958;28;20654;-52
2023/08/19 10:01:48;;;;;;;5.22;4.60;;;;;;;;;;5011876;28;20215;-52
2023/08/19 10:04:14;;;;;;;4.88;4.35;;;;;;;;;;5013753;28;20256;-52
2023/08/19 10:06:43;;;;;;;4.78;4.22;;;;;;;;;;5014217;28;20276;-52
2023/08/19 10:09:09;;;;;;;5.05;4.30;;;;;;;;;;5015519;28;20176;-52
2023/08/19 10:11:36;;;;;;;4.47;4.07;;;;;;;;;;5013308;28;20331;-52
2023/08/19 10:14:05;;;;;;;6.22;4.57;;;;;;;;;;5018579;28;20566;-52
2023/08/19 10:16:33;;;;;;;4.72;4.03;;;;;;;;;;5015468;28;20319;-52
2023/08/19 10:19:00;;;;;;;7.03;4.68;;;;;;;;;;5016837;28;20279;-52
2023/08/19 10:21:28;;;;;;;5.00;4.47;;;;;;;;;;5013026;28;20208;-52
2023/08/19 10:23:54;;;;;;;4.97;4.57;;;;;;;;;;5012690;28;20196;-52
2023/08/19 10:26:20;;;;;;;6.78;4.40;;;;;;;;;;5016344;28;20596;-52
2023/08/19 10:29:06;;;;;;;5.45;4.30;;;;;;;;;;5034051;28;20263;-52
2023/08/19 10:31:35;;;;;;;4.60;4.20;;;;;;;;;;5022784;28;20198;-52
2023/08/19 10:34:11;;;;;;;6.10;4.35;;;;;;;;;;5016108;28;20212;-52
2023/08/19 10:36:37;;;;;;;8.30;4.40;;;;;;;;;;5017813;28;20315;-52
2023/08/19 10:39:07;;;;;;;4.90;4.35;;;;;;;;;;5017757;28;20224;-52
2023/08/19 10:41:38;;;;;;;6.95;4.13;;;;;;;;;;5017143;28;20206;-52
2023/08/19 10:44:08;;;;;;;5.25;4.75;;;;;;;;;;5016747;28;20192;-52
2023/08/19 10:46:35;;;;;;;4.35;3.95;;;;;;;;;;5019279;28;20172;-52
2023/08/19 10:49:02;;;;;;;4.30;3.88;;;;;;;;;;5018768;28;20184;-52
2023/08/19 10:51:47;;;;;;;5.03;4.30;;;;;;;;;;5017483;28;20188;-52
2023/08/19 10:54:13;;;;;;;4.00;3.70;;;;;;;;;;5016775;28;20192;-52
2023/08/19 10:56:44;;;;;;;5.88;4.25;;;;;;;;;;5017639;28;20180;-52
2023/08/19 10:59:10;;;;;;;4.13;3.72;;;;;;;;;;5015788;28;20259;-52
2023/08/19 11:01:36;;;;;;;6.35;4.40;;;;;;;;;;5016909;28;20204;-52
2023/08/19 11:04:03;;;;;;;4.40;3.85;;;;;;;;;;5015549;28;20195;-52
2023/08/19 11:06:29;;;;;;;4.97;4.38;;;;;;;;;;5016895;28;20263;-52
2023/08/19 11:08:59;;;;;;;6.13;4.35;;;;;;;;;;5016754;28;20192;-52
2023/08/19 11:11:25;;;;;;;4.00;3.60;;;;;;;;;;5017466;28;20239;-52
2023/08/19 11:13:52;;;;;;;4.10;3.80;;;;;;;;;;5026082;28;20555;-52
2023/08/19 11:16:18;;;;;;;5.15;3.63;;;;;;;;;;5019745;28;20185;-52
2023/08/19 11:18:44;;;;;;;4.15;3.75;;;;;;;;;;5026478;28;20255;-52
2023/08/19 11:21:10;;;;;;;4.32;3.92;;;;;;;;;;5017084;28;20204;-52
2023/08/19 11:23:35;;;;;;;4.22;3.83;;;;;;;;;;5016642;28;20191;-52
2023/08/19 11:26:01;;;;;;;4.57;3.75;;;;;;;;;;5017123;28;20184;-52
2023/08/19 11:28:27;;;;;;;4.30;3.90;;;;;;;;;;5017000;28;20240;-52
2023/08/19 11:30:53;;;;;;;5.22;3.92;;;;;;;;;;5017146;28;20188;-52
2023/08/19 11:33:19;;;;;;;3.92;3.38;;;;;;;;;;5015302;28;20479;-52
2023/08/19 11:35:46;;;;;;;5.03;3.78;;;;;;;;;;5016996;28;20236;-52
2023/08/19 11:38:13;;;;;;;4.45;3.72;;;;;;;;;;5015876;28;20192;-52
2023/08/19 11:40:39;;;;;;;6.28;3.50;;;;;;;;;;5017124;28;20184;-52
2023/08/19 11:43:08;;;;;;;4.10;3.80;;;;;;;;;;5015200;28;20188;-52
2023/08/19 11:45:37;;;;;;;9.60;3.90;;;;;;;;;;5016963;28;20448;-52
2023/08/19 11:48:03;;;;;;;5.65;3.95;;;;;;;;;;5035212;28;20187;-52
2023/08/19 11:50:34;;;;;;;4.22;3.83;;;;;;;;;;5021291;28;20196;-52
2023/08/19 11:53:00;;;;;;;5.45;4.05;;;;;;;;;;5022836;28;20306;-52
2023/08/19 11:55:27;;;;;;;5.18;3.85;;;;;;;;;;5022480;28;20211;-52
2023/08/19 11:57:53;;;;;;;4.03;3.63;;;;;;;;;;5025898;28;20192;-52
2023/08/19 12:00:19;;;;;;;4.47;4.07;;;;;;;;;;5016418;28;20570;-52
2023/08/19 12:02:46;;;;;;;4.18;3.70;;;;;;;;;;5013779;28;20205;-52
2023/08/19 12:05:12;;;;;;;6.20;3.70;;;;;;;;;;5027420;28;20191;-52
2023/08/19 12:07:43;;;;;;;4.57;3.90;;;;;;;;;;5028982;28;20181;-52
2023/08/19 12:10:09;;;;;;;5.50;3.42;;;;;;;;;;5016678;28;20176;-52
2023/08/19 12:12:35;;;;;;;3.67;3.38;;;;;;;;;;5015650;28;20252;-52
2023/08/19 12:15:02;;;;;;;4.05;3.65;;;;;;;;;;5014780;28;20195;-52
2023/08/19 12:17:28;;;;;;;5.28;3.67;;;;;;;;;;5030329;28;20811;-52
2023/08/19 12:19:54;;;;;;;4.00;3.60;;;;;;;;;;5026316;28;20180;-52
2023/08/19 12:22:19;;;;;;;3.83;3.25;;;;;;;;;;5015749;28;20216;-52
2023/08/19 12:24:48;;;;;;;5.18;3.05;;;;;;;;;;5015217;28;20191;-52
2023/08/19 12:27:14;;;;;;;3.67;3.15;;;;;;;;;;5016098;28;20173;-52
2023/08/19 12:29:40;;;;;;;4.57;3.40;;;;;;;;;;5014853;28;20551;-52
2023/08/19 12:32:06;;;;;;;5.90;3.15;;;;;;;;;;5015258;28;20187;-52
2023/08/19 12:34:32;;;;;;;4.45;3.42;;;;;;;;;;5014675;28;20181;-52
2023/08/19 12:36:58;;;;;;;3.78;3.00;;;;;;;;;;5017439;28;20548;-52
2023/08/19 12:39:25;;;;;;;4.75;3.13;;;;;;;;;;5015646;28;20246;-52
2023/08/19 12:41:51;;;;;;;3.78;3.20;;;;;;;;;;5013805;28;20200;-52
2023/08/19 12:44:17;;;;;;;3.35;3.03;;;;;;;;;;5011929;28;20184;-52
2023/08/19 12:46:44;;;;;;;4.15;2.92;;;;;;;;;;5014974;28;20183;-52
2023/08/19 12:49:10;;;;;;;4.07;3.20;;;;;;;;;;5030154;28;20322;-52
2023/08/19 12:51:36;;;;;;;3.40;3.10;;;;;;;;;;5014627;28;20643;-52
2023/08/19 12:54:04;;;;;;;6.07;3.15;;;;;;;;;;5009065;28;20576;-52
2023/08/19 12:56:30;;;;;;;4.13;2.80;;;;;;;;;;5010536;28;20483;-52
2023/08/19 12:58:56;;;;;;;4.57;3.17;;;;;;;;;;5006525;28;20188;-52
2023/08/19 13:01:22;;;;;;;4.15;3.10;;;;;;;;;;5009919;28;20240;-52
2023/08/19 13:03:48;;;;;;;4.07;3.28;;;;;;;;;;5012852;28;20204;-52
2023/08/19 13:06:14;;;;;;;4.05;3.38;;;;;;;;;;5011353;28;20180;-52
2023/08/19 13:08:40;;;;;;;4.55;3.40;;;;;;;;;;5007388;28;20545;-52
2023/08/19 13:11:05;;;;;;;4.95;3.65;;;;;;;;;;5013107;28;20203;-52
2023/08/19 13:13:31;;;;;;;3.53;3.22;;;;;;;;;;5011879;28;20253;-52
2023/08/19 13:15:57;;;;;;;4.15;2.95;;;;;;;;;;5013717;28;20199;-52
2023/08/19 13:18:23;;;;;;;18.50;3.65;;;;;;;;;;5012674;28;20195;-52
2023/08/19 13:20:51;;;;;;;6.47;3.78;;;;;;;;;;5008558;28;20208;-52
2023/08/19 13:23:16;;;;;;;6.50;3.63;;;;;;;;;;5013114;28;20231;-52
2023/08/19 13:25:42;;;;;;;7.72;3.65;;;;;;;;;;5009979;28;20176;-52
2023/08/19 13:28:09;;;;;;;10.02;3.78;;;;;;;;;;5008209;28;20189;-52
2023/08/19 13:30:35;;;;;;;7.35;3.72;;;;;;;;;;5026191;28;20176;-52
2023/08/19 13:33:03;;;;;;;8.88;3.60;;;;;;;;;;5000529;28;20256;-52
2023/08/19 13:35:30;;;;;;;5.93;3.00;;;;;;;;;;5006690;28;20275;-52
2023/08/19 13:37:56;;;;;;;6.95;3.50;;;;;;;;;;5002511;28;20569;-52
2023/08/19 13:40:21;;;;;;;7.18;3.17;;;;;;;;;;5010939;28;20200;-52
2023/08/19 13:42:47;;;;;;;7.25;3.88;;;;;;;;;;5009162;28;20212;-52
2023/08/19 13:45:13;;;;;;;4.80;3.33;;;;;;;;;;5011713;28;20270;-52
2023/08/19 13:47:39;;;;;;;5.15;3.80;;;;;;;;;;5016114;28;20497;-52
2023/08/19 13:50:06;;;;;;;4.80;3.78;;;;;;;;;;5011546;28;20181;-52
2023/08/19 13:52:50;;;;;;;4.50;4.10;;;;;;;;;;5011590;28;20200;-52
2023/08/19 13:55:16;;;;;;;5.85;3.47;;;;;;;;;;5015105;28;20275;-52
2023/08/19 13:57:42;;;;;;;4.35;3.50;;;;;;;;;;5014534;28;20192;-52
2023/08/19 14:00:14;;;;;;;5.90;3.95;;;;;;;;;;5014467;28;20780;-51
2023/08/19 14:02:41;;;;;;;4.05;3.60;;;;;;;;;;5017100;28;20204;-51
2023/08/19 14:05:09;;;;;;;5.25;3.80;;;;;;;;;;5013770;28;20191;-51
2023/08/19 14:07:35;;;;;;;7.32;3.60;;;;;;;;;;5018451;28;20615;-52
2023/08/19 14:10:00;;;;;;;5.20;3.78;;;;;;;;;;5016686;28;20291;-52
2023/08/19 14:12:26;;;;;;;5.28;3.97;;;;;;;;;;5033254;28;20287;-51
2023/08/19 14:14:52;;;;;;;4.60;3.72;;;;;;;;;;5017634;28;20189;-52
2023/08/19 14:17:18;;;;;;;5.40;4.28;;;;;;;;;;5029122;28;20180;-52
2023/08/19 14:19:44;;;;;;;6.32;3.55;;;;;;;;;;5018227;28;20207;-52
2023/08/19 14:22:10;;;;;;;5.13;4.05;;;;;;;;;;5017771;28;20795;-52
2023/08/19 14:24:36;;;;;;;6.18;4.35;;;;;;;;;;5016812;28;20180;-52
2023/08/19 14:27:03;;;;;;;7.05;4.35;;;;;;;;;;5016671;28;20191;-51
2023/08/19 14:29:29;;;;;;;4.45;3.95;;;;;;;;;;5017689;28;20177;-52
2023/08/19 14:31:55;;;;;;;8.68;3.97;;;;;;;;;;5017838;28;20580;-52
2023/08/19 14:34:21;;;;;;;5.57;4.32;;;;;;;;;;5017676;28;20184;-52
2023/08/19 14:36:47;;;;;;;6.93;4.10;;;;;;;;;;5016952;28;20184;-52
2023/08/19 14:39:13;;;;;;;9.13;4.03;;;;;;;;;;5018033;28;20238;-52